sensor_id;sensor_type;location;lat;lon;timestamp;P1;durP1;ratioP1;P2;durP2;ratioP2
46391;SDS011;32098;49.448;7.904;2023-08-20T00:00:58;14.02;;;12.23;;
46391;SDS011;32098;49.448;7.904;2023-08-20T00:03:26;14.15;;;11.48;;
46391;SDS011;32098;49.448;7.904;2023-08-20T00:05:53;13.18;;;10.55;;
46391;SDS011;32098;49.448;7.904;2023-08-20T00:08:22;13.05;;;10.40;;
46391;SDS011;32098;49.448;7.904;2023-08-20T00:10:48;11.13;;;9.85;;
46391;SDS011;32098;49.448;7.904;2023-08-20T00:13:15;11.82;;;10.02;;
46391;SDS011;32098;49.448;7.904;2023-08-20T00:15:42;10.80;;;9.73;;
46391;SDS011;32098;49.448;7.904;2023-08-20T00:18:10;14.20;;;9.88;;
46391;SDS011;32098;49.448;7.904;2023-08-20T00:20:37;10.60;;;9.30;;
46391;SDS011;32098;49.448;7.904;2023-08-20T00:23:04;10.60;;;9.43;;
46391;SDS011;32098;49.448;7.904;2023-08-20T00:25:31;11.10;;;8.60;;
46391;SDS011;32098;49.448;7.904;2023-08-20T00:27:58;9.30;;;8.20;;
46391;SDS011;32098;49.448;7.904;2023-08-20T00:30:24;10.70;;;9.60;;
46391;SDS011;32098;49.448;7.904;2023-08-20T00:32:51;7.63;;;6.93;;
46391;SDS011;32098;49.448;7.904;2023-08-20T00:35:18;7.57;;;6.65;;
46391;SDS011;32098;49.448;7.904;2023-08-20T00:37:45;7.80;;;7.13;;
46391;SDS011;32098;49.448;7.904;2023-08-20T00:40:11;8.02;;;7.32;;
46391;SDS011;32098;49.448;7.904;2023-08-20T00:42:38;7.88;;;7.20;;
46391;SDS011;32098;49.448;7.904;2023-08-20T00:45:07;8.93;;;7.75;;
46391;SDS011;32098;49.448;7.904;2023-08-20T00:47:34;9.55;;;7.63;;
46391;SDS011;32098;49.448;7.904;2023-08-20T00:50:02;18.35;;;11.45;;
46391;SDS011;32098;49.448;7.904;2023-08-20T00:52:33;23.40;;;11.35;;
46391;SDS011;32098;49.448;7.904;2023-08-20T00:55:06;25.23;;;11.75;;
46391;SDS011;32098;49.448;7.904;2023-08-20T00:57:35;14.85;;;12.07;;
46391;SDS011;32098;49.448;7.904;2023-08-20T01:00:03;41.55;;;12.07;;
46391;SDS011;32098;49.448;7.904;2023-08-20T01:02:34;35.60;;;12.70;;
46391;SDS011;32098;49.448;7.904;2023-08-20T01:05:01;35.22;;;11.95;;
46391;SDS011;32098;49.448;7.904;2023-08-20T01:07:39;53.38;;;13.52;;
46391;SDS011;32098;49.448;7.904;2023-08-20T01:11:16;22.50;;;12.13;;
46391;SDS011;32098;49.448;7.904;2023-08-20T01:13:22;21.35;;;11.88;;
46391;SDS011;32098;49.448;7.904;2023-08-20T01:15:49;15.27;;;12.10;;
46391;SDS011;32098;49.448;7.904;2023-08-20T01:18:16;14.48;;;11.52;;
46391;SDS011;32098;49.448;7.904;2023-08-20T01:20:55;14.25;;;12.23;;
46391;SDS011;32098;49.448;7.904;2023-08-20T01:29:18;15.90;;;10.77;;
46391;SDS011;32098;49.448;7.904;2023-08-20T01:31:45;11.63;;;10.30;;
46391;SDS011;32098;49.448;7.904;2023-08-20T01:34:12;11.02;;;9.95;;
46391;SDS011;32098;49.448;7.904;2023-08-20T01:36:39;13.30;;;11.38;;
46391;SDS011;32098;49.448;7.904;2023-08-20T01:39:06;13.57;;;11.10;;
46391;SDS011;32098;49.448;7.904;2023-08-20T01:41:32;11.52;;;10.43;;
46391;SDS011;32098;49.448;7.904;2023-08-20T01:43:59;12.88;;;11.30;;
46391;SDS011;32098;49.448;7.904;2023-08-20T01:46:26;11.30;;;10.18;;
46391;SDS011;32098;49.448;7.904;2023-08-20T01:48:52;10.32;;;9.32;;
46391;SDS011;32098;49.448;7.904;2023-08-20T01:51:19;9.85;;;8.85;;
46391;SDS011;32098;49.448;7.904;2023-08-20T01:53:45;35.13;;;10.98;;
46391;SDS011;32098;49.448;7.904;2023-08-20T01:56:12;27.13;;;11.20;;
46391;SDS011;32098;49.448;7.904;2023-08-20T01:58:39;11.75;;;10.63;;
46391;SDS011;32098;49.448;7.904;2023-08-20T02:01:06;12.15;;;10.90;;
46391;SDS011;32098;49.448;7.904;2023-08-20T02:03:35;11.90;;;10.70;;
46391;SDS011;32098;49.448;7.904;2023-08-20T02:06:04;26.60;;;10.90;;
46391;SDS011;32098;49.448;7.904;2023-08-20T02:08:30;11.80;;;10.65;;
46391;SDS011;32098;49.448;7.904;2023-08-20T02:11:03;10.18;;;9.23;;
46391;SDS011;32098;49.448;7.904;2023-08-20T02:13:31;11.38;;;10.23;;
46391;SDS011;32098;49.448;7.904;2023-08-20T02:15:59;11.77;;;10.55;;
46391;SDS011;32098;49.448;7.904;2023-08-20T02:18:31;10.65;;;9.65;;
46391;SDS011;32098;49.448;7.904;2023-08-20T02:20:58;14.82;;;10.10;;
46391;SDS011;32098;49.448;7.904;2023-08-20T02:23:26;25.85;;;9.48;;
46391;SDS011;32098;49.448;7.904;2023-08-20T02:25:52;19.45;;;9.48;;
46391;SDS011;32098;49.448;7.904;2023-08-20T02:28:20;16.13;;;10.02;;
46391;SDS011;32098;49.448;7.904;2023-08-20T02:30:46;10.27;;;9.25;;
46391;SDS011;32098;49.448;7.904;2023-08-20T02:33:13;11.60;;;9.20;;
46391;SDS011;32098;49.448;7.904;2023-08-20T02:35:40;12.00;;;9.57;;
46391;SDS011;32098;49.448;7.904;2023-08-20T02:38:07;9.55;;;8.75;;
46391;SDS011;32098;49.448;7.904;2023-08-20T02:40:39;23.90;;;9.55;;
46391;SDS011;32098;49.448;7.904;2023-08-20T02:43:06;15.80;;;9.23;;
46391;SDS011;32098;49.448;7.904;2023-08-20T02:45:33;10.05;;;9.05;;
46391;SDS011;32098;49.448;7.904;2023-08-20T02:48:05;10.00;;;9.10;;
46391;SDS011;32098;49.448;7.904;2023-08-20T02:50:32;10.55;;;9.55;;
46391;SDS011;32098;49.448;7.904;2023-08-20T02:52:59;11.07;;;10.07;;
46391;SDS011;32098;49.448;7.904;2023-08-20T02:55:25;11.02;;;9.80;;
46391;SDS011;32098;49.448;7.904;2023-08-20T02:57:52;10.80;;;9.68;;
46391;SDS011;32098;49.448;7.904;2023-08-20T03:00:18;11.38;;;9.88;;
46391;SDS011;32098;49.448;7.904;2023-08-20T03:02:45;11.15;;;10.05;;
46391;SDS011;32098;49.448;7.904;2023-08-20T03:05:12;11.23;;;10.10;;
46391;SDS011;32098;49.448;7.904;2023-08-20T03:07:38;11.98;;;10.75;;
46391;SDS011;32098;49.448;7.904;2023-08-20T03:10:05;11.30;;;10.13;;
46391;SDS011;32098;49.448;7.904;2023-08-20T03:12:32;13.57;;;10.95;;
46391;SDS011;32098;49.448;7.904;2023-08-20T03:14:59;15.07;;;10.93;;
46391;SDS011;32098;49.448;7.904;2023-08-20T03:17:26;13.65;;;11.52;;
46391;SDS011;32098;49.448;7.904;2023-08-20T03:19:56;16.65;;;11.80;;
46391;SDS011;32098;49.448;7.904;2023-08-20T03:22:25;17.83;;;11.80;;
46391;SDS011;32098;49.448;7.904;2023-08-20T03:24:53;17.08;;;10.90;;
46391;SDS011;32098;49.448;7.904;2023-08-20T03:27:20;22.67;;;11.73;;
46391;SDS011;32098;49.448;7.904;2023-08-20T03:29:46;33.42;;;11.40;;
46391;SDS011;32098;49.448;7.904;2023-08-20T03:32:14;23.30;;;11.65;;
46391;SDS011;32098;49.448;7.904;2023-08-20T03:34:40;37.78;;;10.93;;
46391;SDS011;32098;49.448;7.904;2023-08-20T03:37:07;30.70;;;10.73;;
46391;SDS011;32098;49.448;7.904;2023-08-20T03:39:34;15.48;;;10.65;;
46391;SDS011;32098;49.448;7.904;2023-08-20T03:42:00;23.42;;;11.68;;
46391;SDS011;32098;49.448;7.904;2023-08-20T03:44:27;14.20;;;11.27;;
46391;SDS011;32098;49.448;7.904;2023-08-20T03:46:55;25.63;;;10.90;;
46391;SDS011;32098;49.448;7.904;2023-08-20T03:49:24;49.78;;;12.57;;
46391;SDS011;32098;49.448;7.904;2023-08-20T03:51:51;12.75;;;11.20;;
46391;SDS011;32098;49.448;7.904;2023-08-20T03:54:17;12.45;;;11.25;;
46391;SDS011;32098;49.448;7.904;2023-08-20T03:56:44;12.40;;;11.10;;
46391;SDS011;32098;49.448;7.904;2023-08-20T03:59:11;11.30;;;10.18;;
46391;SDS011;32098;49.448;7.904;2023-08-20T04:01:38;12.07;;;10.82;;
46391;SDS011;32098;49.448;7.904;2023-08-20T04:04:05;14.52;;;11.40;;
46391;SDS011;32098;49.448;7.904;2023-08-20T04:06:32;12.70;;;11.40;;
46391;SDS011;32098;49.448;7.904;2023-08-20T04:08:58;14.60;;;12.27;;
46391;SDS011;32098;49.448;7.904;2023-08-20T04:11:25;13.27;;;11.55;;
46391;SDS011;32098;49.448;7.904;2023-08-20T04:13:51;12.63;;;11.35;;
46391;SDS011;32098;49.448;7.904;2023-08-20T04:16:18;10.90;;;9.90;;
46391;SDS011;32098;49.448;7.904;2023-08-20T04:18:45;10.93;;;9.95;;
46391;SDS011;32098;49.448;7.904;2023-08-20T04:21:11;11.93;;;8.95;;
46391;SDS011;32098;49.448;7.904;2023-08-20T04:23:38;10.90;;;9.88;;
46391;SDS011;32098;49.448;7.904;2023-08-20T04:26:04;10.80;;;9.70;;
46391;SDS011;32098;49.448;7.904;2023-08-20T04:28:33;11.02;;;9.93;;
46391;SDS011;32098;49.448;7.904;2023-08-20T04:30:59;11.20;;;9.88;;
46391;SDS011;32098;49.448;7.904;2023-08-20T04:36:15;10.95;;;9.93;;
46391;SDS011;32098;49.448;7.904;2023-08-20T04:38:41;10.73;;;9.73;;
46391;SDS011;32098;49.448;7.904;2023-08-20T04:41:08;10.65;;;9.55;;
46391;SDS011;32098;49.448;7.904;2023-08-20T04:43:35;10.02;;;9.13;;
46391;SDS011;32098;49.448;7.904;2023-08-20T04:46:02;9.90;;;9.00;;
46391;SDS011;32098;49.448;7.904;2023-08-20T04:48:29;11.07;;;9.85;;
46391;SDS011;32098;49.448;7.904;2023-08-20T04:50:56;10.57;;;9.57;;
46391;SDS011;32098;49.448;7.904;2023-08-20T04:53:23;10.70;;;9.63;;
46391;SDS011;32098;49.448;7.904;2023-08-20T04:55:50;10.45;;;9.45;;
46391;SDS011;32098;49.448;7.904;2023-08-20T04:58:17;11.25;;;9.27;;
46391;SDS011;32098;49.448;7.904;2023-08-20T05:00:44;10.30;;;9.40;;
46391;SDS011;32098;49.448;7.904;2023-08-20T05:03:13;10.90;;;9.68;;
46391;SDS011;32098;49.448;7.904;2023-08-20T05:05:39;11.23;;;9.88;;
46391;SDS011;32098;49.448;7.904;2023-08-20T05:08:07;11.98;;;9.88;;
46391;SDS011;32098;49.448;7.904;2023-08-20T05:10:35;11.20;;;10.10;;
46391;SDS011;32098;49.448;7.904;2023-08-20T05:13:03;10.57;;;9.63;;
46391;SDS011;32098;49.448;7.904;2023-08-20T05:15:30;10.52;;;9.52;;
46391;SDS011;32098;49.448;7.904;2023-08-20T05:17:57;10.18;;;9.13;;
46391;SDS011;32098;49.448;7.904;2023-08-20T05:20:23;10.85;;;9.82;;
46391;SDS011;32098;49.448;7.904;2023-08-20T05:22:50;10.50;;;9.50;;
46391;SDS011;32098;49.448;7.904;2023-08-20T05:25:17;10.43;;;9.50;;
46391;SDS011;32098;49.448;7.904;2023-08-20T05:27:43;10.02;;;8.63;;
46391;SDS011;32098;49.448;7.904;2023-08-20T05:30:10;11.18;;;9.30;;
46391;SDS011;32098;49.448;7.904;2023-08-20T05:32:37;9.85;;;8.95;;
46391;SDS011;32098;49.448;7.904;2023-08-20T05:35:04;11.00;;;9.75;;
46391;SDS011;32098;49.448;7.904;2023-08-20T05:37:32;11.10;;;10.00;;
46391;SDS011;32098;49.448;7.904;2023-08-20T05:39:58;11.18;;;9.95;;
46391;SDS011;32098;49.448;7.904;2023-08-20T05:42:25;10.98;;;9.10;;
46391;SDS011;32098;49.448;7.904;2023-08-20T05:44:59;11.48;;;10.00;;
46391;SDS011;32098;49.448;7.904;2023-08-20T05:47:28;11.85;;;10.50;;
46391;SDS011;32098;49.448;7.904;2023-08-20T05:49:55;11.27;;;10.18;;
46391;SDS011;32098;49.448;7.904;2023-08-20T05:52:22;11.13;;;10.13;;
46391;SDS011;32098;49.448;7.904;2023-08-20T05:54:48;10.75;;;9.75;;
46391;SDS011;32098;49.448;7.904;2023-08-20T05:57:15;10.15;;;9.10;;
46391;SDS011;32098;49.448;7.904;2023-08-20T05:59:43;11.52;;;10.35;;
46391;SDS011;32098;49.448;7.904;2023-08-20T06:02:14;10.68;;;9.55;;
46391;SDS011;32098;49.448;7.904;2023-08-20T06:04:42;10.48;;;9.48;;
46391;SDS011;32098;49.448;7.904;2023-08-20T06:07:08;10.80;;;9.70;;
46391;SDS011;32098;49.448;7.904;2023-08-20T06:09:37;10.85;;;9.75;;
46391;SDS011;32098;49.448;7.904;2023-08-20T06:12:04;11.25;;;9.35;;
46391;SDS011;32098;49.448;7.904;2023-08-20T06:14:30;11.43;;;9.82;;
46391;SDS011;32098;49.448;7.904;2023-08-20T06:16:57;10.82;;;9.63;;
46391;SDS011;32098;49.448;7.904;2023-08-20T06:19:24;10.55;;;9.55;;
46391;SDS011;32098;49.448;7.904;2023-08-20T06:21:50;12.25;;;9.65;;
46391;SDS011;32098;49.448;7.904;2023-08-20T06:24:17;10.40;;;9.43;;
46391;SDS011;32098;49.448;7.904;2023-08-20T06:26:43;9.63;;;8.75;;
46391;SDS011;32098;49.448;7.904;2023-08-20T06:29:11;14.20;;;9.73;;
46391;SDS011;32098;49.448;7.904;2023-08-20T06:31:37;11.07;;;10.07;;
46391;SDS011;32098;49.448;7.904;2023-08-20T06:34:04;13.82;;;9.82;;
46391;SDS011;32098;49.448;7.904;2023-08-20T06:36:30;13.10;;;10.55;;
46391;SDS011;32098;49.448;7.904;2023-08-20T06:38:57;12.63;;;11.40;;
46391;SDS011;32098;49.448;7.904;2023-08-20T06:41:26;13.38;;;12.07;;
46391;SDS011;32098;49.448;7.904;2023-08-20T06:43:52;12.60;;;11.30;;
46391;SDS011;32098;49.448;7.904;2023-08-20T06:46:19;12.45;;;11.18;;
46391;SDS011;32098;49.448;7.904;2023-08-20T06:48:46;11.85;;;10.70;;
46391;SDS011;32098;49.448;7.904;2023-08-20T06:51:18;11.40;;;10.38;;
46391;SDS011;32098;49.448;7.904;2023-08-20T06:53:46;12.13;;;11.00;;
46391;SDS011;32098;49.448;7.904;2023-08-20T06:56:13;13.05;;;11.75;;
46391;SDS011;32098;49.448;7.904;2023-08-20T06:58:40;12.80;;;11.60;;
46391;SDS011;32098;49.448;7.904;2023-08-20T07:01:08;12.48;;;11.27;;
46391;SDS011;32098;49.448;7.904;2023-08-20T07:03:38;12.32;;;11.10;;
46391;SDS011;32098;49.448;7.904;2023-08-20T07:06:06;11.52;;;10.43;;
46391;SDS011;32098;49.448;7.904;2023-08-20T07:08:33;9.77;;;8.80;;
46391;SDS011;32098;49.448;7.904;2023-08-20T07:10:59;12.95;;;11.70;;
46391;SDS011;32098;49.448;7.904;2023-08-20T07:13:26;11.93;;;10.18;;
46391;SDS011;32098;49.448;7.904;2023-08-20T07:15:53;10.77;;;9.52;;
46391;SDS011;32098;49.448;7.904;2023-08-20T07:18:21;11.00;;;9.80;;
46391;SDS011;32098;49.448;7.904;2023-08-20T07:20:47;11.02;;;10.00;;
46391;SDS011;32098;49.448;7.904;2023-08-20T07:23:14;8.77;;;7.93;;
46391;SDS011;32098;49.448;7.904;2023-08-20T07:25:41;7.35;;;6.60;;
46391;SDS011;32098;49.448;7.904;2023-08-20T07:28:08;8.55;;;7.80;;
46391;SDS011;32098;49.448;7.904;2023-08-20T07:30:35;9.25;;;8.32;;
46391;SDS011;32098;49.448;7.904;2023-08-20T07:33:02;8.45;;;7.75;;
46391;SDS011;32098;49.448;7.904;2023-08-20T07:35:31;8.68;;;7.88;;
46391;SDS011;32098;49.448;7.904;2023-08-20T07:37:58;8.55;;;7.75;;
46391;SDS011;32098;49.448;7.904;2023-08-20T07:40:24;9.15;;;7.97;;
46391;SDS011;32098;49.448;7.904;2023-08-20T07:42:51;8.88;;;7.70;;
46391;SDS011;32098;49.448;7.904;2023-08-20T07:45:17;8.43;;;7.63;;
46391;SDS011;32098;49.448;7.904;2023-08-20T07:47:44;8.90;;;7.70;;
46391;SDS011;32098;49.448;7.904;2023-08-20T07:50:10;8.18;;;7.47;;
46391;SDS011;32098;49.448;7.904;2023-08-20T07:52:37;7.82;;;7.03;;
46391;SDS011;32098;49.448;7.904;2023-08-20T07:55:04;8.55;;;7.15;;
46391;SDS011;32098;49.448;7.904;2023-08-20T07:57:30;7.53;;;6.85;;
46391;SDS011;32098;49.448;7.904;2023-08-20T07:59:57;8.18;;;7.47;;
46391;SDS011;32098;49.448;7.904;2023-08-20T08:02:24;7.82;;;7.03;;
46391;SDS011;32098;49.448;7.904;2023-08-20T08:04:50;7.05;;;6.47;;
46391;SDS011;32098;49.448;7.904;2023-08-20T08:07:17;7.47;;;6.80;;
46391;SDS011;32098;49.448;7.904;2023-08-20T08:09:43;8.10;;;7.30;;
46391;SDS011;32098;49.448;7.904;2023-08-20T08:12:11;8.13;;;7.32;;
46391;SDS011;32098;49.448;7.904;2023-08-20T08:14:38;7.43;;;6.53;;
46391;SDS011;32098;49.448;7.904;2023-08-20T08:17:07;7.50;;;6.75;;
46391;SDS011;32098;49.448;7.904;2023-08-20T08:19:34;7.70;;;6.95;;
46391;SDS011;32098;49.448;7.904;2023-08-20T08:22:01;7.85;;;7.20;;
46391;SDS011;32098;49.448;7.904;2023-08-20T08:24:27;6.93;;;6.43;;
46391;SDS011;32098;49.448;7.904;2023-08-20T08:26:54;7.53;;;6.57;;
46391;SDS011;32098;49.448;7.904;2023-08-20T08:29:20;6.90;;;6.30;;
46391;SDS011;32098;49.448;7.904;2023-08-20T08:31:47;7.30;;;6.70;;
46391;SDS011;32098;49.448;7.904;2023-08-20T08:34:13;6.80;;;6.05;;
46391;SDS011;32098;49.448;7.904;2023-08-20T08:36:40;8.02;;;6.78;;
46391;SDS011;32098;49.448;7.904;2023-08-20T08:39:07;7.47;;;6.75;;
46391;SDS011;32098;49.448;7.904;2023-08-20T08:41:34;7.18;;;6.57;;
46391;SDS011;32098;49.448;7.904;2023-08-20T08:44:04;7.20;;;6.60;;
46391;SDS011;32098;49.448;7.904;2023-08-20T08:46:34;7.18;;;6.50;;
46391;SDS011;32098;49.448;7.904;2023-08-20T08:49:02;7.07;;;6.28;;
46391;SDS011;32098;49.448;7.904;2023-08-20T08:51:30;7.18;;;6.45;;
46391;SDS011;32098;49.448;7.904;2023-08-20T08:53:57;7.65;;;6.10;;
46391;SDS011;32098;49.448;7.904;2023-08-20T08:56:25;6.60;;;6.00;;
46391;SDS011;32098;49.448;7.904;2023-08-20T08:58:51;7.15;;;6.53;;
46391;SDS011;32098;49.448;7.904;2023-08-20T09:01:18;6.88;;;6.10;;
46391;SDS011;32098;49.448;7.904;2023-08-20T09:03:45;6.07;;;5.28;;
46391;SDS011;32098;49.448;7.904;2023-08-20T09:06:12;5.82;;;5.32;;
46391;SDS011;32098;49.448;7.904;2023-08-20T09:08:38;7.03;;;5.55;;
46391;SDS011;32098;49.448;7.904;2023-08-20T09:11:05;7.15;;;5.80;;
46391;SDS011;32098;49.448;7.904;2023-08-20T09:13:33;7.57;;;5.65;;
46391;SDS011;32098;49.448;7.904;2023-08-20T09:16:08;6.88;;;5.10;;
46391;SDS011;32098;49.448;7.904;2023-08-20T09:18:38;7.03;;;5.45;;
46391;SDS011;32098;49.448;7.904;2023-08-20T09:21:10;6.78;;;5.22;;
46391;SDS011;32098;49.448;7.904;2023-08-20T09:23:38;6.32;;;5.28;;
46391;SDS011;32098;49.448;7.904;2023-08-20T09:26:06;7.05;;;5.47;;
46391;SDS011;32098;49.448;7.904;2023-08-20T09:28:43;6.28;;;5.55;;
46391;SDS011;32098;49.448;7.904;2023-08-20T09:31:11;6.97;;;5.10;;
46391;SDS011;32098;49.448;7.904;2023-08-20T09:33:48;7.68;;;5.60;;
46391;SDS011;32098;49.448;7.904;2023-08-20T09:36:16;6.50;;;5.35;;
46391;SDS011;32098;49.448;7.904;2023-08-20T09:38:42;7.53;;;5.80;;
46391;SDS011;32098;49.448;7.904;2023-08-20T09:41:11;6.82;;;6.28;;
46391;SDS011;32098;49.448;7.904;2023-08-20T09:43:38;6.78;;;5.55;;
46391;SDS011;32098;49.448;7.904;2023-08-20T09:46:05;6.45;;;5.85;;
46391;SDS011;32098;49.448;7.904;2023-08-20T09:48:35;6.30;;;5.80;;
46391;SDS011;32098;49.448;7.904;2023-08-20T09:51:05;6.70;;;6.00;;
46391;SDS011;32098;49.448;7.904;2023-08-20T09:53:37;7.25;;;6.47;;
46391;SDS011;32098;49.448;7.904;2023-08-20T09:56:44;8.45;;;5.55;;
46391;SDS011;32098;49.448;7.904;2023-08-20T09:59:08;7.18;;;5.72;;
46391;SDS011;32098;49.448;7.904;2023-08-20T10:01:36;6.65;;;5.93;;
46391;SDS011;32098;49.448;7.904;2023-08-20T10:04:03;6.65;;;6.00;;
46391;SDS011;32098;49.448;7.904;2023-08-20T10:06:31;6.43;;;5.82;;
46391;SDS011;32098;49.448;7.904;2023-08-20T10:08:59;6.78;;;5.95;;
46391;SDS011;32098;49.448;7.904;2023-08-20T10:11:26;6.93;;;5.93;;
46391;SDS011;32098;49.448;7.904;2023-08-20T10:13:53;6.40;;;5.80;;
46391;SDS011;32098;49.448;7.904;2023-08-20T10:16:20;6.25;;;5.65;;
46391;SDS011;32098;49.448;7.904;2023-08-20T10:18:48;6.38;;;5.68;;
46391;SDS011;32098;49.448;7.904;2023-08-20T10:21:15;6.95;;;5.80;;
46391;SDS011;32098;49.448;7.904;2023-08-20T10:23:41;5.85;;;5.00;;
46391;SDS011;32098;49.448;7.904;2023-08-20T10:26:09;7.55;;;5.28;;
46391;SDS011;32098;49.448;7.904;2023-08-20T10:28:36;6.10;;;5.38;;
46391;SDS011;32098;49.448;7.904;2023-08-20T10:33:35;5.07;;;4.40;;
46391;SDS011;32098;49.448;7.904;2023-08-20T10:36:09;6.00;;;4.40;;
46391;SDS011;32098;49.448;7.904;2023-08-20T10:38:40;5.38;;;3.70;;
46391;SDS011;32098;49.448;7.904;2023-08-20T10:41:07;2.75;;;2.42;;
46391;SDS011;32098;49.448;7.904;2023-08-20T10:43:35;3.42;;;3.13;;
46391;SDS011;32098;49.448;7.904;2023-08-20T10:48:38;3.78;;;3.40;;
46391;SDS011;32098;49.448;7.904;2023-08-20T10:51:12;5.05;;;3.50;;
46391;SDS011;32098;49.448;7.904;2023-08-20T10:53:41;4.32;;;3.92;;
46391;SDS011;32098;49.448;7.904;2023-08-20T10:56:13;4.28;;;3.80;;
46391;SDS011;32098;49.448;7.904;2023-08-20T10:58:44;5.45;;;3.40;;
46391;SDS011;32098;49.448;7.904;2023-08-20T11:01:14;3.97;;;3.22;;
46391;SDS011;32098;49.448;7.904;2023-08-20T11:03:44;4.38;;;3.50;;
46391;SDS011;32098;49.448;7.904;2023-08-20T11:06:11;5.40;;;3.67;;
46391;SDS011;32098;49.448;7.904;2023-08-20T11:08:38;5.43;;;3.95;;
46391;SDS011;32098;49.448;7.904;2023-08-20T11:11:06;5.03;;;3.72;;
46391;SDS011;32098;49.448;7.904;2023-08-20T11:13:34;5.18;;;3.72;;
46391;SDS011;32098;49.448;7.904;2023-08-20T11:16:02;5.65;;;4.00;;
46391;SDS011;32098;49.448;7.904;2023-08-20T11:18:32;4.88;;;3.70;;
46391;SDS011;32098;49.448;7.904;2023-08-20T11:21:00;5.78;;;3.60;;
46391;SDS011;32098;49.448;7.904;2023-08-20T11:23:27;5.00;;;3.97;;
46391;SDS011;32098;49.448;7.904;2023-08-20T11:25:54;5.18;;;4.10;;
46391;SDS011;32098;49.448;7.904;2023-08-20T11:28:21;4.35;;;3.80;;
46391;SDS011;32098;49.448;7.904;2023-08-20T11:30:48;4.15;;;3.85;;
46391;SDS011;32098;49.448;7.904;2023-08-20T11:33:17;4.95;;;4.32;;
46391;SDS011;32098;49.448;7.904;2023-08-20T11:35:44;7.32;;;4.38;;
46391;SDS011;32098;49.448;7.904;2023-08-20T11:38:11;4.70;;;4.30;;
46391;SDS011;32098;49.448;7.904;2023-08-20T11:40:40;4.82;;;4.25;;
46391;SDS011;32098;49.448;7.904;2023-08-20T11:43:07;6.03;;;4.07;;
46391;SDS011;32098;49.448;7.904;2023-08-20T11:45:43;6.75;;;4.70;;
46391;SDS011;32098;49.448;7.904;2023-08-20T11:48:11;5.70;;;4.10;;
46391;SDS011;32098;49.448;7.904;2023-08-20T11:50:38;4.90;;;4.50;;
46391;SDS011;32098;49.448;7.904;2023-08-20T11:53:05;5.25;;;4.38;;
46391;SDS011;32098;49.448;7.904;2023-08-20T11:55:31;4.32;;;3.80;;
46391;SDS011;32098;49.448;7.904;2023-08-20T11:57:58;4.95;;;4.40;;
46391;SDS011;32098;49.448;7.904;2023-08-20T12:00:28;4.97;;;4.10;;
46391;SDS011;32098;49.448;7.904;2023-08-20T12:02:57;4.88;;;3.72;;
46391;SDS011;32098;49.448;7.904;2023-08-20T12:05:28;5.50;;;4.30;;
46391;SDS011;32098;49.448;7.904;2023-08-20T12:07:58;4.22;;;3.80;;
46391;SDS011;32098;49.448;7.904;2023-08-20T12:10:27;5.85;;;4.00;;
46391;SDS011;32098;49.448;7.904;2023-08-20T12:12:55;5.55;;;4.22;;
46391;SDS011;32098;49.448;7.904;2023-08-20T12:15:23;4.47;;;3.60;;
46391;SDS011;32098;49.448;7.904;2023-08-20T12:17:57;4.28;;;3.85;;
46391;SDS011;32098;49.448;7.904;2023-08-20T12:20:28;4.40;;;3.90;;
46391;SDS011;32098;49.448;7.904;2023-08-20T12:23:00;4.30;;;3.90;;
46391;SDS011;32098;49.448;7.904;2023-08-20T12:25:32;4.05;;;3.65;;
46391;SDS011;32098;49.448;7.904;2023-08-20T12:28:02;6.00;;;3.70;;
46391;SDS011;32098;49.448;7.904;2023-08-20T12:30:31;5.47;;;3.90;;
46391;SDS011;32098;49.448;7.904;2023-08-20T12:33:01;5.35;;;3.83;;
46391;SDS011;32098;49.448;7.904;2023-08-20T12:35:28;3.88;;;3.40;;
46391;SDS011;32098;49.448;7.904;2023-08-20T12:37:55;5.55;;;3.47;;
46391;SDS011;32098;49.448;7.904;2023-08-20T12:40:21;5.25;;;3.78;;
46391;SDS011;32098;49.448;7.904;2023-08-20T12:42:48;3.80;;;3.40;;
46391;SDS011;32098;49.448;7.904;2023-08-20T12:45:14;3.85;;;3.45;;
46391;SDS011;32098;49.448;7.904;2023-08-20T12:47:41;5.38;;;3.92;;
46391;SDS011;32098;49.448;7.904;2023-08-20T12:50:08;5.22;;;3.90;;
46391;SDS011;32098;49.448;7.904;2023-08-20T12:52:35;4.72;;;3.83;;
46391;SDS011;32098;49.448;7.904;2023-08-20T12:55:02;4.30;;;3.90;;
46391;SDS011;32098;49.448;7.904;2023-08-20T12:57:29;4.35;;;3.92;;
46391;SDS011;32098;49.448;7.904;2023-08-20T12:59:56;8.25;;;4.10;;
46391;SDS011;32098;49.448;7.904;2023-08-20T13:02:23;5.90;;;4.18;;
46391;SDS011;32098;49.448;7.904;2023-08-20T13:04:50;7.03;;;4.10;;
46391;SDS011;32098;49.448;7.904;2023-08-20T13:07:16;6.85;;;4.15;;
46391;SDS011;32098;49.448;7.904;2023-08-20T13:09:43;4.35;;;3.60;;
46391;SDS011;32098;49.448;7.904;2023-08-20T13:12:10;6.97;;;4.45;;
46391;SDS011;32098;49.448;7.904;2023-08-20T13:14:41;6.72;;;4.30;;
46391;SDS011;32098;49.448;7.904;2023-08-20T13:17:08;4.35;;;3.90;;
46391;SDS011;32098;49.448;7.904;2023-08-20T13:19:36;4.68;;;4.20;;
46391;SDS011;32098;49.448;7.904;2023-08-20T13:22:03;7.63;;;4.28;;
46391;SDS011;32098;49.448;7.904;2023-08-20T13:24:30;6.20;;;4.13;;
46391;SDS011;32098;49.448;7.904;2023-08-20T13:26:56;6.05;;;3.83;;
46391;SDS011;32098;49.448;7.904;2023-08-20T13:29:23;6.03;;;4.10;;
46391;SDS011;32098;49.448;7.904;2023-08-20T13:31:49;4.63;;;4.22;;
46391;SDS011;32098;49.448;7.904;2023-08-20T13:34:16;4.28;;;3.83;;
46391;SDS011;32098;49.448;7.904;2023-08-20T13:36:43;6.47;;;4.20;;
46391;SDS011;32098;49.448;7.904;2023-08-20T13:39:09;4.35;;;3.85;;
46391;SDS011;32098;49.448;7.904;2023-08-20T13:41:40;5.28;;;4.18;;
46391;SDS011;32098;49.448;7.904;2023-08-20T13:44:07;5.25;;;3.90;;
46391;SDS011;32098;49.448;7.904;2023-08-20T13:46:35;5.72;;;3.80;;
46391;SDS011;32098;49.448;7.904;2023-08-20T13:49:02;4.70;;;3.97;;
46391;SDS011;32098;49.448;7.904;2023-08-20T13:51:29;7.18;;;4.45;;
46391;SDS011;32098;49.448;7.904;2023-08-20T13:53:56;6.65;;;3.63;;
46391;SDS011;32098;49.448;7.904;2023-08-20T13:56:29;5.70;;;4.15;;
46391;SDS011;32098;49.448;7.904;2023-08-20T13:58:55;8.07;;;4.22;;
46391;SDS011;32098;49.448;7.904;2023-08-20T14:01:22;4.53;;;4.13;;
46391;SDS011;32098;49.448;7.904;2023-08-20T14:03:48;4.28;;;3.88;;
46391;SDS011;32098;49.448;7.904;2023-08-20T14:06:16;5.28;;;4.03;;
46391;SDS011;32098;49.448;7.904;2023-08-20T14:08:43;5.60;;;4.18;;
46391;SDS011;32098;49.448;7.904;2023-08-20T14:11:09;5.07;;;4.18;;
46391;SDS011;32098;49.448;7.904;2023-08-20T14:13:36;4.88;;;3.80;;
46391;SDS011;32098;49.448;7.904;2023-08-20T14:16:03;6.18;;;3.95;;
46391;SDS011;32098;49.448;7.904;2023-08-20T14:18:29;5.60;;;4.47;;
46391;SDS011;32098;49.448;7.904;2023-08-20T14:20:56;5.15;;;4.22;;
46391;SDS011;32098;49.448;7.904;2023-08-20T14:23:22;6.95;;;3.70;;
46391;SDS011;32098;49.448;7.904;2023-08-20T14:25:49;4.82;;;3.75;;
46391;SDS011;32098;49.448;7.904;2023-08-20T14:28:16;5.25;;;4.00;;
46391;SDS011;32098;49.448;7.904;2023-08-20T14:30:42;4.60;;;3.97;;
46391;SDS011;32098;49.448;7.904;2023-08-20T14:33:09;4.35;;;3.97;;
46391;SDS011;32098;49.448;7.904;2023-08-20T14:35:35;4.57;;;3.78;;
46391;SDS011;32098;49.448;7.904;2023-08-20T14:38:02;5.05;;;3.70;;
46391;SDS011;32098;49.448;7.904;2023-08-20T14:40:29;4.97;;;3.53;;
46391;SDS011;32098;49.448;7.904;2023-08-20T14:42:56;5.90;;;4.18;;
46391;SDS011;32098;49.448;7.904;2023-08-20T14:45:23;4.50;;;3.97;;
46391;SDS011;32098;49.448;7.904;2023-08-20T14:47:49;4.40;;;3.95;;
46391;SDS011;32098;49.448;7.904;2023-08-20T14:50:16;7.32;;;3.95;;
46391;SDS011;32098;49.448;7.904;2023-08-20T14:52:42;7.07;;;4.07;;
46391;SDS011;32098;49.448;7.904;2023-08-20T14:55:09;4.35;;;3.92;;